Gustavus, Alaska
Current Conditions -  °F | °C
As of 9:32 AM on Friday 28 Nov 2014 (Local Time) from PAGS Reporting Station
Clear Clear  
Wind Chill: 19°   Ceiling: Unl
Heat Index: 19°   Visibility: 10mi
Dew Point:   Wind: 0mph
Humidity: 58%   Direction: NA
Pressure: 30.26"   Gusts: NA
Location:  58.41°N, 135.74°W
Report Text: PAGS 281832Z AUTO 00000KT 10SM CLR M07/M14 A3026 RMK VIA PHONE
Loading
Personal Weather Stations






























Interactive Weather Map New forecast layout! Learn more

10-Day Weather Forecast

Advertisements
Track Severe Weather on mobile